sensor_id;sensor_type;location;lat;lon;timestamp;temperature;humidity
7360;DHT22;3720;48.274;7.796;2022-11-15T00:01:55;14.00;99.90
7360;DHT22;3720;48.274;7.796;2022-11-15T00:04:27;14.00;99.90
7360;DHT22;3720;48.274;7.796;2022-11-15T00:06:59;14.00;99.90
7360;DHT22;3720;48.274;7.796;2022-11-15T00:09:32;13.90;99.90
7360;DHT22;3720;48.274;7.796;2022-11-15T00:12:04;13.80;99.90
7360;DHT22;3720;48.274;7.796;2022-11-15T00:14:36;13.80;99.90
7360;DHT22;3720;48.274;7.796;2022-11-15T00:17:08;13.70;99.90
7360;DHT22;3720;48.274;7.796;2022-11-15T00:19:39;13.70;99.90
7360;DHT22;3720;48.274;7.796;2022-11-15T00:22:11;13.70;99.90
7360;DHT22;3720;48.274;7.796;2022-11-15T00:24:45;13.60;99.90
7360;DHT22;3720;48.274;7.796;2022-11-15T00:27:16;13.60;99.90
7360;DHT22;3720;48.274;7.796;2022-11-15T00:29:48;13.50;99.90
7360;DHT22;3720;48.274;7.796;2022-11-15T00:32:20;13.50;99.90
7360;DHT22;3720;48.274;7.796;2022-11-15T00:34:52;13.40;99.90
7360;DHT22;3720;48.274;7.796;2022-11-15T00:37:24;13.40;99.90
7360;DHT22;3720;48.274;7.796;2022-11-15T00:39:57;13.40;99.90
7360;DHT22;3720;48.274;7.796;2022-11-15T00:42:29;13.30;99.90
7360;DHT22;3720;48.274;7.796;2022-11-15T00:45:01;13.20;99.90
7360;DHT22;3720;48.274;7.796;2022-11-15T00:47:32;13.20;99.90
7360;DHT22;3720;48.274;7.796;2022-11-15T00:50:05;13.10;99.90
7360;DHT22;3720;48.274;7.796;2022-11-15T00:52:37;13.10;99.90
7360;DHT22;3720;48.274;7.796;2022-11-15T00:55:13;13.20;99.90
7360;DHT22;3720;48.274;7.796;2022-11-15T00:57:46;13.20;99.90
7360;DHT22;3720;48.274;7.796;2022-11-15T01:00:18;13.20;99.90
7360;DHT22;3720;48.274;7.796;2022-11-15T01:02:50;13.30;99.90
7360;DHT22;3720;48.274;7.796;2022-11-15T01:05:22;13.50;99.90
7360;DHT22;3720;48.274;7.796;2022-11-15T01:07:55;13.70;99.90
7360;DHT22;3720;48.274;7.796;2022-11-15T01:10:28;13.80;99.90
7360;DHT22;3720;48.274;7.796;2022-11-15T01:13:00;13.80;99.90
7360;DHT22;3720;48.274;7.796;2022-11-15T01:15:32;13.80;99.90
7360;DHT22;3720;48.274;7.796;2022-11-15T01:18:04;13.90;99.90
7360;DHT22;3720;48.274;7.796;2022-11-15T01:20:39;13.90;99.90
7360;DHT22;3720;48.274;7.796;2022-11-15T01:23:11;13.90;99.90
7360;DHT22;3720;48.274;7.796;2022-11-15T01:25:44;13.70;99.90
7360;DHT22;3720;48.274;7.796;2022-11-15T01:28:16;13.60;99.90
7360;DHT22;3720;48.274;7.796;2022-11-15T01:30:48;13.50;99.90
7360;DHT22;3720;48.274;7.796;2022-11-15T01:33:20;13.50;99.90
7360;DHT22;3720;48.274;7.796;2022-11-15T01:35:51;13.50;99.90
7360;DHT22;3720;48.274;7.796;2022-11-15T01:38:23;13.50;99.90
7360;DHT22;3720;48.274;7.796;2022-11-15T01:40:56;13.40;99.90
7360;DHT22;3720;48.274;7.796;2022-11-15T01:43:30;13.50;99.90
7360;DHT22;3720;48.274;7.796;2022-11-15T01:46:06;13.50;99.90
7360;DHT22;3720;48.274;7.796;2022-11-15T01:48:42;13.40;99.90
7360;DHT22;3720;48.274;7.796;2022-11-15T01:51:16;13.30;99.90
7360;DHT22;3720;48.274;7.796;2022-11-15T01:53:52;13.20;99.90
7360;DHT22;3720;48.274;7.796;2022-11-15T01:56:30;13.20;99.90
7360;DHT22;3720;48.274;7.796;2022-11-15T01:59:06;13.20;99.90
7360;DHT22;3720;48.274;7.796;2022-11-15T02:01:39;13.10;99.90
7360;DHT22;3720;48.274;7.796;2022-11-15T02:04:15;13.20;99.90
7360;DHT22;3720;48.274;7.796;2022-11-15T02:06:48;13.10;99.90
7360;DHT22;3720;48.274;7.796;2022-11-15T02:09:20;13.00;99.90
7360;DHT22;3720;48.274;7.796;2022-11-15T02:11:54;12.90;99.90
7360;DHT22;3720;48.274;7.796;2022-11-15T02:14:27;12.70;99.90
7360;DHT22;3720;48.274;7.796;2022-11-15T02:17:11;12.60;99.90
7360;DHT22;3720;48.274;7.796;2022-11-15T02:22:57;12.50;99.90
7360;DHT22;3720;48.274;7.796;2022-11-15T02:25:39;12.50;99.90
7360;DHT22;3720;48.274;7.796;2022-11-15T02:28:35;12.40;99.90
7360;DHT22;3720;48.274;7.796;2022-11-15T02:31:17;12.40;99.90
7360;DHT22;3720;48.274;7.796;2022-11-15T02:33:59;12.40;99.90
7360;DHT22;3720;48.274;7.796;2022-11-15T02:36:41;12.40;99.90
7360;DHT22;3720;48.274;7.796;2022-11-15T02:39:21;12.50;99.90
7360;DHT22;3720;48.274;7.796;2022-11-15T02:42:00;12.60;99.90
7360;DHT22;3720;48.274;7.796;2022-11-15T02:44:36;12.50;99.90
7360;DHT22;3720;48.274;7.796;2022-11-15T02:47:13;12.50;99.90
7360;DHT22;3720;48.274;7.796;2022-11-15T02:49:48;12.50;99.90
7360;DHT22;3720;48.274;7.796;2022-11-15T02:52:23;12.50;99.90
7360;DHT22;3720;48.274;7.796;2022-11-15T02:54:56;12.50;99.90
7360;DHT22;3720;48.274;7.796;2022-11-15T02:57:40;12.40;99.90
7360;DHT22;3720;48.274;7.796;2022-11-15T03:00:15;12.40;99.90
7360;DHT22;3720;48.274;7.796;2022-11-15T03:03:24;12.30;99.90
7360;DHT22;3720;48.274;7.796;2022-11-15T03:06:09;12.20;99.90
7360;DHT22;3720;48.274;7.796;2022-11-15T03:08:51;12.20;99.90
7360;DHT22;3720;48.274;7.796;2022-11-15T03:11:25;12.10;99.90
7360;DHT22;3720;48.274;7.796;2022-11-15T03:14:01;12.10;99.90
7360;DHT22;3720;48.274;7.796;2022-11-15T03:16:40;12.10;99.90
7360;DHT22;3720;48.274;7.796;2022-11-15T03:19:20;12.00;99.90
7360;DHT22;3720;48.274;7.796;2022-11-15T03:21:57;12.00;99.90
7360;DHT22;3720;48.274;7.796;2022-11-15T03:24:34;12.00;99.90
7360;DHT22;3720;48.274;7.796;2022-11-15T03:27:09;12.00;99.90
7360;DHT22;3720;48.274;7.796;2022-11-15T03:29:47;11.90;99.90
7360;DHT22;3720;48.274;7.796;2022-11-15T03:32:24;11.80;99.90
7360;DHT22;3720;48.274;7.796;2022-11-15T03:35:01;11.80;99.90
7360;DHT22;3720;48.274;7.796;2022-11-15T03:37:37;11.80;99.90
7360;DHT22;3720;48.274;7.796;2022-11-15T03:40:10;11.70;99.90
7360;DHT22;3720;48.274;7.796;2022-11-15T03:42:45;11.80;99.90
7360;DHT22;3720;48.274;7.796;2022-11-15T03:45:21;11.90;99.90
7360;DHT22;3720;48.274;7.796;2022-11-15T03:47:58;11.80;99.90
7360;DHT22;3720;48.274;7.796;2022-11-15T03:50:33;11.80;99.90
7360;DHT22;3720;48.274;7.796;2022-11-15T03:53:06;11.90;99.90
7360;DHT22;3720;48.274;7.796;2022-11-15T03:55:38;12.00;99.90
7360;DHT22;3720;48.274;7.796;2022-11-15T03:58:09;12.10;99.90
7360;DHT22;3720;48.274;7.796;2022-11-15T04:00:41;12.20;99.90
7360;DHT22;3720;48.274;7.796;2022-11-15T04:03:13;12.30;99.90
7360;DHT22;3720;48.274;7.796;2022-11-15T04:05:46;12.40;99.90
7360;DHT22;3720;48.274;7.796;2022-11-15T04:08:18;12.40;99.90
7360;DHT22;3720;48.274;7.796;2022-11-15T04:10:50;12.50;99.90
7360;DHT22;3720;48.274;7.796;2022-11-15T04:13:22;12.60;99.90
7360;DHT22;3720;48.274;7.796;2022-11-15T04:15:54;12.70;99.90
7360;DHT22;3720;48.274;7.796;2022-11-15T04:18:26;12.80;99.90
7360;DHT22;3720;48.274;7.796;2022-11-15T04:20:59;12.70;99.90
7360;DHT22;3720;48.274;7.796;2022-11-15T04:23:49;12.60;99.90
7360;DHT22;3720;48.274;7.796;2022-11-15T04:26:38;12.60;99.90
7360;DHT22;3720;48.274;7.796;2022-11-15T04:29:10;12.70;99.90
7360;DHT22;3720;48.274;7.796;2022-11-15T04:31:59;12.70;99.90
7360;DHT22;3720;48.274;7.796;2022-11-15T04:34:31;12.70;99.90
7360;DHT22;3720;48.274;7.796;2022-11-15T04:37:04;12.70;99.90
7360;DHT22;3720;48.274;7.796;2022-11-15T04:39:46;12.70;99.90
7360;DHT22;3720;48.274;7.796;2022-11-15T04:42:18;12.80;99.90
7360;DHT22;3720;48.274;7.796;2022-11-15T04:44:50;12.70;99.90
7360;DHT22;3720;48.274;7.796;2022-11-15T04:47:21;12.70;99.90
7360;DHT22;3720;48.274;7.796;2022-11-15T04:49:53;12.70;99.90
7360;DHT22;3720;48.274;7.796;2022-11-15T04:52:26;12.60;99.90
7360;DHT22;3720;48.274;7.796;2022-11-15T04:54:58;12.70;99.90
7360;DHT22;3720;48.274;7.796;2022-11-15T04:57:30;12.80;99.90
7360;DHT22;3720;48.274;7.796;2022-11-15T05:00:04;12.70;99.90
7360;DHT22;3720;48.274;7.796;2022-11-15T05:02:36;12.80;99.90
7360;DHT22;3720;48.274;7.796;2022-11-15T05:05:26;12.70;99.90
7360;DHT22;3720;48.274;7.796;2022-11-15T05:07:59;12.80;99.90
7360;DHT22;3720;48.274;7.796;2022-11-15T05:10:31;12.80;99.90
7360;DHT22;3720;48.274;7.796;2022-11-15T05:13:03;12.70;99.90
7360;DHT22;3720;48.274;7.796;2022-11-15T05:15:34;12.70;99.90
7360;DHT22;3720;48.274;7.796;2022-11-15T05:18:06;12.70;99.90
7360;DHT22;3720;48.274;7.796;2022-11-15T05:20:38;12.70;99.90
7360;DHT22;3720;48.274;7.796;2022-11-15T05:23:11;12.70;99.90
7360;DHT22;3720;48.274;7.796;2022-11-15T05:25:43;12.70;99.90
7360;DHT22;3720;48.274;7.796;2022-11-15T05:28:15;12.70;99.90
7360;DHT22;3720;48.274;7.796;2022-11-15T05:30:47;12.70;99.90
7360;DHT22;3720;48.274;7.796;2022-11-15T05:33:19;12.60;99.90
7360;DHT22;3720;48.274;7.796;2022-11-15T05:35:56;12.60;99.90
7360;DHT22;3720;48.274;7.796;2022-11-15T05:38:32;12.60;99.90
7360;DHT22;3720;48.274;7.796;2022-11-15T05:41:05;12.60;99.90
7360;DHT22;3720;48.274;7.796;2022-11-15T05:43:38;12.60;99.90
7360;DHT22;3720;48.274;7.796;2022-11-15T05:46:12;12.60;99.90
7360;DHT22;3720;48.274;7.796;2022-11-15T05:48:47;12.60;99.90
7360;DHT22;3720;48.274;7.796;2022-11-15T05:51:21;12.60;99.90
7360;DHT22;3720;48.274;7.796;2022-11-15T05:53:56;12.60;99.90
7360;DHT22;3720;48.274;7.796;2022-11-15T05:56:28;12.60;99.90
7360;DHT22;3720;48.274;7.796;2022-11-15T05:59:01;12.50;99.90
7360;DHT22;3720;48.274;7.796;2022-11-15T06:01:33;12.50;99.90
7360;DHT22;3720;48.274;7.796;2022-11-15T06:04:05;12.50;99.90
7360;DHT22;3720;48.274;7.796;2022-11-15T06:06:37;12.50;99.90
7360;DHT22;3720;48.274;7.796;2022-11-15T06:09:10;12.40;99.90
7360;DHT22;3720;48.274;7.796;2022-11-15T06:11:42;12.40;99.90
7360;DHT22;3720;48.274;7.796;2022-11-15T06:14:14;12.30;99.90
7360;DHT22;3720;48.274;7.796;2022-11-15T06:16:46;12.40;99.90
7360;DHT22;3720;48.274;7.796;2022-11-15T06:19:17;12.30;99.90
7360;DHT22;3720;48.274;7.796;2022-11-15T06:21:49;12.40;99.90
7360;DHT22;3720;48.274;7.796;2022-11-15T06:24:22;12.40;99.90
7360;DHT22;3720;48.274;7.796;2022-11-15T06:26:54;12.30;99.90
7360;DHT22;3720;48.274;7.796;2022-11-15T06:29:27;12.30;99.90
7360;DHT22;3720;48.274;7.796;2022-11-15T06:31:59;12.40;99.90
7360;DHT22;3720;48.274;7.796;2022-11-15T06:34:31;12.40;99.90
7360;DHT22;3720;48.274;7.796;2022-11-15T06:37:03;12.50;99.90
7360;DHT22;3720;48.274;7.796;2022-11-15T06:39:36;12.50;99.90
7360;DHT22;3720;48.274;7.796;2022-11-15T06:42:08;12.50;99.90
7360;DHT22;3720;48.274;7.796;2022-11-15T06:44:40;12.50;99.90
7360;DHT22;3720;48.274;7.796;2022-11-15T06:47:12;12.50;99.90
7360;DHT22;3720;48.274;7.796;2022-11-15T06:49:44;12.50;99.90
7360;DHT22;3720;48.274;7.796;2022-11-15T06:52:15;12.50;99.90
7360;DHT22;3720;48.274;7.796;2022-11-15T06:54:50;12.50;99.90
7360;DHT22;3720;48.274;7.796;2022-11-15T06:57:22;12.40;99.90
7360;DHT22;3720;48.274;7.796;2022-11-15T06:59:53;12.40;99.90
7360;DHT22;3720;48.274;7.796;2022-11-15T07:02:25;12.40;99.90
7360;DHT22;3720;48.274;7.796;2022-11-15T07:04:57;12.40;99.90
7360;DHT22;3720;48.274;7.796;2022-11-15T07:07:29;12.40;99.90
7360;DHT22;3720;48.274;7.796;2022-11-15T07:10:03;12.40;99.90
7360;DHT22;3720;48.274;7.796;2022-11-15T07:12:35;12.40;99.90
7360;DHT22;3720;48.274;7.796;2022-11-15T07:15:08;12.40;99.90
7360;DHT22;3720;48.274;7.796;2022-11-15T07:17:40;12.40;99.90
7360;DHT22;3720;48.274;7.796;2022-11-15T07:20:13;12.40;99.90
7360;DHT22;3720;48.274;7.796;2022-11-15T07:22:45;12.30;99.90
7360;DHT22;3720;48.274;7.796;2022-11-15T07:25:19;12.30;99.90
7360;DHT22;3720;48.274;7.796;2022-11-15T07:27:54;12.30;99.90
7360;DHT22;3720;48.274;7.796;2022-11-15T07:30:27;12.30;99.90
7360;DHT22;3720;48.274;7.796;2022-11-15T07:32:59;12.20;99.90
7360;DHT22;3720;48.274;7.796;2022-11-15T07:35:31;12.20;99.90
7360;DHT22;3720;48.274;7.796;2022-11-15T07:38:03;12.20;99.90
7360;DHT22;3720;48.274;7.796;2022-11-15T07:40:37;12.20;99.90
7360;DHT22;3720;48.274;7.796;2022-11-15T07:43:09;12.20;99.90
7360;DHT22;3720;48.274;7.796;2022-11-15T07:45:42;12.20;99.90
7360;DHT22;3720;48.274;7.796;2022-11-15T07:48:14;12.20;99.90
7360;DHT22;3720;48.274;7.796;2022-11-15T07:50:46;12.10;99.90
7360;DHT22;3720;48.274;7.796;2022-11-15T07:53:17;12.10;99.90
7360;DHT22;3720;48.274;7.796;2022-11-15T07:55:51;12.10;99.90
7360;DHT22;3720;48.274;7.796;2022-11-15T07:58:23;12.10;99.90
7360;DHT22;3720;48.274;7.796;2022-11-15T08:00:55;12.10;99.90
7360;DHT22;3720;48.274;7.796;2022-11-15T08:03:27;12.10;99.90
7360;DHT22;3720;48.274;7.796;2022-11-15T08:05:59;12.10;99.90
7360;DHT22;3720;48.274;7.796;2022-11-15T08:08:31;12.10;99.90
7360;DHT22;3720;48.274;7.796;2022-11-15T08:11:05;12.10;99.90
7360;DHT22;3720;48.274;7.796;2022-11-15T08:13:36;12.10;99.90
7360;DHT22;3720;48.274;7.796;2022-11-15T08:16:08;12.20;99.90
7360;DHT22;3720;48.274;7.796;2022-11-15T08:18:42;12.20;99.90
7360;DHT22;3720;48.274;7.796;2022-11-15T08:21:18;12.30;99.90
7360;DHT22;3720;48.274;7.796;2022-11-15T08:23:50;12.40;99.90
7360;DHT22;3720;48.274;7.796;2022-11-15T08:26:24;12.50;99.90
7360;DHT22;3720;48.274;7.796;2022-11-15T08:28:59;12.60;99.90
7360;DHT22;3720;48.274;7.796;2022-11-15T08:31:31;12.70;99.90
7360;DHT22;3720;48.274;7.796;2022-11-15T08:34:03;12.80;99.90
7360;DHT22;3720;48.274;7.796;2022-11-15T08:36:35;12.90;99.90
7360;DHT22;3720;48.274;7.796;2022-11-15T08:39:10;13.00;99.90
7360;DHT22;3720;48.274;7.796;2022-11-15T08:41:43;13.00;99.90
7360;DHT22;3720;48.274;7.796;2022-11-15T08:44:16;13.00;99.90
7360;DHT22;3720;48.274;7.796;2022-11-15T08:46:47;13.00;99.90
7360;DHT22;3720;48.274;7.796;2022-11-15T08:49:19;13.00;99.90
7360;DHT22;3720;48.274;7.796;2022-11-15T08:51:51;13.10;99.90
7360;DHT22;3720;48.274;7.796;2022-11-15T08:54:23;13.00;99.90
7360;DHT22;3720;48.274;7.796;2022-11-15T08:56:56;13.00;99.90
7360;DHT22;3720;48.274;7.796;2022-11-15T08:59:28;12.90;99.90
7360;DHT22;3720;48.274;7.796;2022-11-15T09:02:00;12.90;99.90
7360;DHT22;3720;48.274;7.796;2022-11-15T09:04:32;12.90;99.90
7360;DHT22;3720;48.274;7.796;2022-11-15T09:07:04;12.90;99.90
7360;DHT22;3720;48.274;7.796;2022-11-15T09:09:35;12.80;99.90
7360;DHT22;3720;48.274;7.796;2022-11-15T09:12:09;12.80;99.90
7360;DHT22;3720;48.274;7.796;2022-11-15T09:14:40;12.70;99.90
7360;DHT22;3720;48.274;7.796;2022-11-15T09:17:12;12.80;99.90
7360;DHT22;3720;48.274;7.796;2022-11-15T09:19:44;12.80;99.90
7360;DHT22;3720;48.274;7.796;2022-11-15T09:22:16;12.80;99.90
7360;DHT22;3720;48.274;7.796;2022-11-15T09:24:48;12.70;99.90
7360;DHT22;3720;48.274;7.796;2022-11-15T09:27:21;12.80;99.90
7360;DHT22;3720;48.274;7.796;2022-11-15T09:29:53;12.80;99.90
7360;DHT22;3720;48.274;7.796;2022-11-15T09:32:28;12.80;99.90
7360;DHT22;3720;48.274;7.796;2022-11-15T09:35:00;12.80;99.90
7360;DHT22;3720;48.274;7.796;2022-11-15T09:37:32;12.80;99.90
7360;DHT22;3720;48.274;7.796;2022-11-15T09:40:05;12.80;99.90
7360;DHT22;3720;48.274;7.796;2022-11-15T09:43:09;12.80;99.90
7360;DHT22;3720;48.274;7.796;2022-11-15T09:45:53;12.90;99.90
7360;DHT22;3720;48.274;7.796;2022-11-15T09:48:50;12.90;99.90
7360;DHT22;3720;48.274;7.796;2022-11-15T09:51:27;12.90;99.90
7360;DHT22;3720;48.274;7.796;2022-11-15T09:54:02;13.00;99.90
7360;DHT22;3720;48.274;7.796;2022-11-15T09:56:36;13.00;99.90
7360;DHT22;3720;48.274;7.796;2022-11-15T09:59:23;13.00;99.90
7360;DHT22;3720;48.274;7.796;2022-11-15T10:02:04;13.00;99.90
7360;DHT22;3720;48.274;7.796;2022-11-15T10:04:41;13.10;99.90
7360;DHT22;3720;48.274;7.796;2022-11-15T10:07:16;13.20;99.90
7360;DHT22;3720;48.274;7.796;2022-11-15T10:09:53;13.20;99.90
7360;DHT22;3720;48.274;7.796;2022-11-15T10:12:28;13.30;99.90
7360;DHT22;3720;48.274;7.796;2022-11-15T10:15:05;13.40;99.90
7360;DHT22;3720;48.274;7.796;2022-11-15T10:17:49;13.40;99.90
7360;DHT22;3720;48.274;7.796;2022-11-15T10:20:27;13.40;99.90
7360;DHT22;3720;48.274;7.796;2022-11-15T10:23:01;13.40;99.90
7360;DHT22;3720;48.274;7.796;2022-11-15T10:25:36;13.40;99.90
7360;DHT22;3720;48.274;7.796;2022-11-15T10:28:13;13.50;99.90
7360;DHT22;3720;48.274;7.796;2022-11-15T10:30:48;13.50;99.90
7360;DHT22;3720;48.274;7.796;2022-11-15T10:33:26;13.50;99.90
7360;DHT22;3720;48.274;7.796;2022-11-15T10:36:14;13.70;99.90
7360;DHT22;3720;48.274;7.796;2022-11-15T10:38:57;13.60;99.90
7360;DHT22;3720;48.274;7.796;2022-11-15T10:41:34;13.70;99.90
7360;DHT22;3720;48.274;7.796;2022-11-15T10:44:25;13.70;99.90
7360;DHT22;3720;48.274;7.796;2022-11-15T10:47:20;13.80;99.90
7360;DHT22;3720;48.274;7.796;2022-11-15T10:49:58;13.80;99.90
7360;DHT22;3720;48.274;7.796;2022-11-15T10:52:34;13.80;99.90
7360;DHT22;3720;48.274;7.796;2022-11-15T10:55:23;13.80;99.90
7360;DHT22;3720;48.274;7.796;2022-11-15T10:57:59;13.70;99.90
7360;DHT22;3720;48.274;7.796;2022-11-15T11:00:34;13.90;99.90
7360;DHT22;3720;48.274;7.796;2022-11-15T11:03:26;13.90;99.90
7360;DHT22;3720;48.274;7.796;2022-11-15T11:06:08;14.00;99.90
7360;DHT22;3720;48.274;7.796;2022-11-15T11:08:41;14.00;99.90
7360;DHT22;3720;48.274;7.796;2022-11-15T11:11:24;14.10;99.90
7360;DHT22;3720;48.274;7.796;2022-11-15T11:14:11;14.20;99.90
7360;DHT22;3720;48.274;7.796;2022-11-15T11:16:47;14.20;99.90
7360;DHT22;3720;48.274;7.796;2022-11-15T11:19:36;14.20;99.90
7360;DHT22;3720;48.274;7.796;2022-11-15T11:22:17;14.30;99.90
7360;DHT22;3720;48.274;7.796;2022-11-15T11:25:00;14.30;99.90
7360;DHT22;3720;48.274;7.796;2022-11-15T11:27:44;14.20;99.90
7360;DHT22;3720;48.274;7.796;2022-11-15T11:30:21;14.30;99.90
7360;DHT22;3720;48.274;7.796;2022-11-15T11:33:14;14.20;99.90
7360;DHT22;3720;48.274;7.796;2022-11-15T11:35:59;14.20;99.90
7360;DHT22;3720;48.274;7.796;2022-11-15T11:38:46;14.20;99.90
7360;DHT22;3720;48.274;7.796;2022-11-15T11:41:34;14.20;99.90
7360;DHT22;3720;48.274;7.796;2022-11-15T11:44:28;14.20;99.90
7360;DHT22;3720;48.274;7.796;2022-11-15T11:47:06;14.20;99.90
7360;DHT22;3720;48.274;7.796;2022-11-15T11:49:44;14.10;99.90
7360;DHT22;3720;48.274;7.796;2022-11-15T11:52:23;14.10;99.90
7360;DHT22;3720;48.274;7.796;2022-11-15T11:55:03;14.20;99.90
7360;DHT22;3720;48.274;7.796;2022-11-15T11:57:41;14.20;99.90
7360;DHT22;3720;48.274;7.796;2022-11-15T12:00:18;14.20;99.90
7360;DHT22;3720;48.274;7.796;2022-11-15T12:03:03;14.20;99.90
7360;DHT22;3720;48.274;7.796;2022-11-15T12:05:40;14.30;99.90
7360;DHT22;3720;48.274;7.796;2022-11-15T12:08:25;14.30;99.90
7360;DHT22;3720;48.274;7.796;2022-11-15T12:11:03;14.40;99.90
7360;DHT22;3720;48.274;7.796;2022-11-15T12:13:36;14.40;99.90
7360;DHT22;3720;48.274;7.796;2022-11-15T12:16:14;14.50;99.90
7360;DHT22;3720;48.274;7.796;2022-11-15T12:18:51;14.50;99.90
7360;DHT22;3720;48.274;7.796;2022-11-15T12:21:30;14.60;99.90
7360;DHT22;3720;48.274;7.796;2022-11-15T12:24:11;14.50;99.90
7360;DHT22;3720;48.274;7.796;2022-11-15T12:26:50;14.60;99.90
7360;DHT22;3720;48.274;7.796;2022-11-15T12:29:26;14.60;99.90
7360;DHT22;3720;48.274;7.796;2022-11-15T12:32:00;14.60;99.90
7360;DHT22;3720;48.274;7.796;2022-11-15T12:34:42;14.60;99.90
7360;DHT22;3720;48.274;7.796;2022-11-15T12:43:38;14.60;99.90
7360;DHT22;3720;48.274;7.796;2022-11-15T12:46:14;14.60;99.90
7360;DHT22;3720;48.274;7.796;2022-11-15T12:48:53;14.60;99.90
7360;DHT22;3720;48.274;7.796;2022-11-15T12:57:47;14.50;99.90
7360;DHT22;3720;48.274;7.796;2022-11-15T13:00:43;14.40;99.90
7360;DHT22;3720;48.274;7.796;2022-11-15T13:03:24;14.30;99.90
7360;DHT22;3720;48.274;7.796;2022-11-15T13:06:05;14.30;99.90
7360;DHT22;3720;48.274;7.796;2022-11-15T13:11:49;14.20;99.90
7360;DHT22;3720;48.274;7.796;2022-11-15T13:17:36;14.10;99.90
7360;DHT22;3720;48.274;7.796;2022-11-15T13:20:26;14.20;99.90
7360;DHT22;3720;48.274;7.796;2022-11-15T13:23:08;14.10;99.90
7360;DHT22;3720;48.274;7.796;2022-11-15T13:26:10;14.10;99.90
7360;DHT22;3720;48.274;7.796;2022-11-15T13:28:44;14.00;99.90
7360;DHT22;3720;48.274;7.796;2022-11-15T13:34:24;14.00;99.90
7360;DHT22;3720;48.274;7.796;2022-11-15T13:36:57;14.00;99.90
7360;DHT22;3720;48.274;7.796;2022-11-15T13:39:30;14.00;99.90
7360;DHT22;3720;48.274;7.796;2022-11-15T13:42:02;14.00;99.90
7360;DHT22;3720;48.274;7.796;2022-11-15T13:44:34;14.00;99.90
7360;DHT22;3720;48.274;7.796;2022-11-15T13:47:15;14.00;99.90
7360;DHT22;3720;48.274;7.796;2022-11-15T13:49:48;14.00;99.90
7360;DHT22;3720;48.274;7.796;2022-11-15T13:52:21;14.00;99.90
7360;DHT22;3720;48.274;7.796;2022-11-15T13:54:57;13.90;99.90
7360;DHT22;3720;48.274;7.796;2022-11-15T13:57:37;13.90;99.90
7360;DHT22;3720;48.274;7.796;2022-11-15T14:00:26;13.90;99.90
7360;DHT22;3720;48.274;7.796;2022-11-15T14:03:07;13.90;99.90
7360;DHT22;3720;48.274;7.796;2022-11-15T14:05:40;13.80;99.90
7360;DHT22;3720;48.274;7.796;2022-11-15T14:08:22;13.80;99.90
7360;DHT22;3720;48.274;7.796;2022-11-15T14:11:09;13.80;99.90
7360;DHT22;3720;48.274;7.796;2022-11-15T14:14:08;13.80;99.90
7360;DHT22;3720;48.274;7.796;2022-11-15T14:16:44;13.80;99.90
7360;DHT22;3720;48.274;7.796;2022-11-15T14:19:37;13.80;99.90
7360;DHT22;3720;48.274;7.796;2022-11-15T14:22:19;13.80;99.90
7360;DHT22;3720;48.274;7.796;2022-11-15T14:25:15;13.80;99.90
7360;DHT22;3720;48.274;7.796;2022-11-15T14:30:56;13.70;99.90
7360;DHT22;3720;48.274;7.796;2022-11-15T14:33:29;13.70;99.90
7360;DHT22;3720;48.274;7.796;2022-11-15T14:36:04;13.70;99.90
7360;DHT22;3720;48.274;7.796;2022-11-15T14:38:38;13.80;99.90
7360;DHT22;3720;48.274;7.796;2022-11-15T14:41:18;13.70;99.90
7360;DHT22;3720;48.274;7.796;2022-11-15T14:43:51;13.80;99.90
7360;DHT22;3720;48.274;7.796;2022-11-15T14:46:23;13.70;99.90
7360;DHT22;3720;48.274;7.796;2022-11-15T14:48:55;13.70;99.90
7360;DHT22;3720;48.274;7.796;2022-11-15T14:51:27;13.70;99.90
7360;DHT22;3720;48.274;7.796;2022-11-15T14:54:00;13.70;99.90
7360;DHT22;3720;48.274;7.796;2022-11-15T14:56:32;13.70;99.90
7360;DHT22;3720;48.274;7.796;2022-11-15T14:59:03;13.70;99.90
7360;DHT22;3720;48.274;7.796;2022-11-15T15:01:35;13.70;99.90
7360;DHT22;3720;48.274;7.796;2022-11-15T15:04:09;13.70;99.90
7360;DHT22;3720;48.274;7.796;2022-11-15T15:06:41;13.70;99.90
7360;DHT22;3720;48.274;7.796;2022-11-15T15:09:14;13.60;99.90
7360;DHT22;3720;48.274;7.796;2022-11-15T15:11:46;13.60;99.90
7360;DHT22;3720;48.274;7.796;2022-11-15T15:14:18;13.60;99.90
7360;DHT22;3720;48.274;7.796;2022-11-15T15:16:50;13.60;99.90
7360;DHT22;3720;48.274;7.796;2022-11-15T15:19:22;13.60;99.90
7360;DHT22;3720;48.274;7.796;2022-11-15T15:21:54;13.60;99.90
7360;DHT22;3720;48.274;7.796;2022-11-15T15:24:27;13.60;99.90
7360;DHT22;3720;48.274;7.796;2022-11-15T15:26:59;13.50;99.90
7360;DHT22;3720;48.274;7.796;2022-11-15T15:29:30;13.50;99.90
7360;DHT22;3720;48.274;7.796;2022-11-15T15:32:02;13.50;99.90
7360;DHT22;3720;48.274;7.796;2022-11-15T15:34:34;13.40;99.90
7360;DHT22;3720;48.274;7.796;2022-11-15T15:37:08;13.40;99.90
7360;DHT22;3720;48.274;7.796;2022-11-15T15:39:41;13.40;99.90
7360;DHT22;3720;48.274;7.796;2022-11-15T15:42:13;13.30;99.90
7360;DHT22;3720;48.274;7.796;2022-11-15T15:44:45;13.30;99.90
7360;DHT22;3720;48.274;7.796;2022-11-15T15:47:19;13.30;99.90
7360;DHT22;3720;48.274;7.796;2022-11-15T15:49:51;13.30;99.90
7360;DHT22;3720;48.274;7.796;2022-11-15T15:52:23;13.30;99.90
7360;DHT22;3720;48.274;7.796;2022-11-15T15:54:56;13.30;99.90
7360;DHT22;3720;48.274;7.796;2022-11-15T15:57:28;13.20;99.90
7360;DHT22;3720;48.274;7.796;2022-11-15T16:00:00;13.20;99.90
7360;DHT22;3720;48.274;7.796;2022-11-15T16:02:32;13.20;99.90
7360;DHT22;3720;48.274;7.796;2022-11-15T16:05:05;13.10;99.90
7360;DHT22;3720;48.274;7.796;2022-11-15T16:07:37;13.10;99.90
7360;DHT22;3720;48.274;7.796;2022-11-15T16:10:19;13.10;99.90
7360;DHT22;3720;48.274;7.796;2022-11-15T16:12:52;13.10;99.90
7360;DHT22;3720;48.274;7.796;2022-11-15T16:15:25;13.10;99.90
7360;DHT22;3720;48.274;7.796;2022-11-15T16:17:58;13.10;99.90
7360;DHT22;3720;48.274;7.796;2022-11-15T16:20:33;13.10;99.90
7360;DHT22;3720;48.274;7.796;2022-11-15T16:23:07;13.00;99.90
7360;DHT22;3720;48.274;7.796;2022-11-15T16:25:44;13.00;99.90
7360;DHT22;3720;48.274;7.796;2022-11-15T16:28:17;12.90;99.90
7360;DHT22;3720;48.274;7.796;2022-11-15T16:30:58;12.90;99.90
7360;DHT22;3720;48.274;7.796;2022-11-15T16:33:30;12.90;99.90
7360;DHT22;3720;48.274;7.796;2022-11-15T16:36:03;12.90;99.90
7360;DHT22;3720;48.274;7.796;2022-11-15T16:38:35;12.90;99.90
7360;DHT22;3720;48.274;7.796;2022-11-15T16:41:10;12.90;99.90
7360;DHT22;3720;48.274;7.796;2022-11-15T16:43:42;12.80;99.90
7360;DHT22;3720;48.274;7.796;2022-11-15T16:46:16;12.90;99.90
7360;DHT22;3720;48.274;7.796;2022-11-15T16:48:49;12.80;99.90
7360;DHT22;3720;48.274;7.796;2022-11-15T16:51:22;12.80;99.90
7360;DHT22;3720;48.274;7.796;2022-11-15T16:53:53;12.80;99.90
7360;DHT22;3720;48.274;7.796;2022-11-15T16:56:28;12.80;99.90
7360;DHT22;3720;48.274;7.796;2022-11-15T16:59:00;12.80;99.90
7360;DHT22;3720;48.274;7.796;2022-11-15T17:01:34;12.80;99.90
7360;DHT22;3720;48.274;7.796;2022-11-15T17:04:06;12.70;99.90
7360;DHT22;3720;48.274;7.796;2022-11-15T17:06:45;12.70;99.90
7360;DHT22;3720;48.274;7.796;2022-11-15T17:09:19;12.70;99.90
7360;DHT22;3720;48.274;7.796;2022-11-15T17:11:55;12.70;99.90
7360;DHT22;3720;48.274;7.796;2022-11-15T17:14:27;12.70;99.90
7360;DHT22;3720;48.274;7.796;2022-11-15T17:16:59;12.60;99.90
7360;DHT22;3720;48.274;7.796;2022-11-15T17:19:31;12.60;99.90
7360;DHT22;3720;48.274;7.796;2022-11-15T17:22:03;12.60;99.90
7360;DHT22;3720;48.274;7.796;2022-11-15T17:24:34;12.60;99.90